Time;durP1;ratioP1;P1;durP2;ratioP2;P2;SDS_P1;SDS_P2;PMS_P1;PMS_P2;Temp;Humidity;BMP_temperature;BMP_pressure;BME280_temperature;BME280_humidity;BME280_pressure;Samples;Min_cycle;Max_cycle;Signal;HPM_P1;HPM_P2
2022/07/12 00:00:05;;;;;;;4.07;1.80;;;15.20;99.90;;;;;;5033765;28;20208;-64
2022/07/12 00:02:33;;;;;;;3.10;1.60;;;15.10;99.90;;;;;;5035976;28;20198;-61
2022/07/12 00:05:00;;;;;;;3.40;1.50;;;15.10;99.90;;;;;;5049592;28;20295;-64
2022/07/12 00:07:27;;;;;;;4.87;2.00;;;15.10;99.90;;;;;;5053558;28;20295;-63
2022/07/12 00:09:54;;;;;;;3.07;1.80;;;15.10;99.90;;;;;;5053651;28;20205;-63
2022/07/12 00:12:21;;;;;;;2.70;1.60;;;15.10;99.90;;;;;;5053738;28;20318;-64
2022/07/12 00:14:49;;;;;;;3.10;1.70;;;15.10;99.90;;;;;;5053896;28;20210;-61
2022/07/12 00:17:15;;;;;;;2.67;1.60;;;15.20;99.90;;;;;;5052293;28;20209;-65
2022/07/12 00:19:44;;;;;;;1.80;1.70;;;15.20;99.90;;;;;;5033607;28;20297;-64
2022/07/12 00:22:10;;;;;;;2.00;1.77;;;15.20;99.90;;;;;;5033303;28;20241;-62
2022/07/12 00:24:37;;;;;;;1.90;1.50;;;15.20;99.90;;;;;;5033390;28;20325;-62
2022/07/12 00:27:05;;;;;;;1.90;1.70;;;15.20;99.90;;;;;;5033418;28;20744;-63
2022/07/12 00:29:31;;;;;;;2.60;1.60;;;15.20;99.90;;;;;;5033649;28;20744;-63
2022/07/12 00:31:58;;;;;;;2.77;1.80;;;15.20;99.90;;;;;;5033064;28;20743;-62
2022/07/12 00:34:25;;;;;;;2.93;1.73;;;15.20;99.90;;;;;;5036689;28;20236;-63
2022/07/12 00:36:53;;;;;;;1.80;1.50;;;15.20;99.90;;;;;;5032285;28;20190;-62
2022/07/12 00:39:20;;;;;;;3.03;1.63;;;15.20;99.90;;;;;;5032961;28;20301;-63
2022/07/12 00:41:49;;;;;;;3.43;1.70;;;15.20;99.90;;;;;;5033254;28;20210;-63
2022/07/12 00:44:16;;;;;;;1.50;1.40;;;15.10;99.90;;;;;;5033088;28;20238;-63
2022/07/12 00:46:44;;;;;;;1.93;1.60;;;15.10;99.90;;;;;;5032959;28;20301;-62
2022/07/12 00:49:15;;;;;;;1.67;1.47;;;15.10;99.90;;;;;;5032823;28;20225;-63
2022/07/12 00:51:42;;;;;;;1.70;1.60;;;15.10;99.90;;;;;;5032986;28;20197;-62
2022/07/12 00:54:11;;;;;;;2.83;1.70;;;15.10;99.90;;;;;;5032871;28;20675;-63
2022/07/12 00:56:38;;;;;;;2.73;1.63;;;15.10;99.90;;;;;;5032851;28;20301;-62
2022/07/12 00:59:05;;;;;;;2.80;1.80;;;15.00;99.90;;;;;;5034115;28;20292;-63
2022/07/12 01:01:32;;;;;;;1.70;1.60;;;15.00;99.90;;;;;;5052900;28;20663;-62
2022/07/12 01:03:59;;;;;;;2.43;1.70;;;15.10;99.90;;;;;;5052714;28;20233;-62
2022/07/12 01:06:27;;;;;;;2.37;1.60;;;15.10;99.90;;;;;;5052977;28;20680;-63
2022/07/12 01:08:54;;;;;;;3.33;2.00;;;15.00;99.90;;;;;;5052675;28;20664;-62
2022/07/12 01:11:22;;;;;;;2.97;2.03;;;15.10;99.90;;;;;;5052752;28;20259;-63
2022/07/12 01:13:50;;;;;;;2.87;1.90;;;15.00;99.90;;;;;;5049720;28;20739;-64
2022/07/12 01:16:19;;;;;;;2.33;1.93;;;15.00;99.90;;;;;;5031419;28;20217;-62
2022/07/12 01:18:46;;;;;;;2.10;1.90;;;15.00;99.90;;;;;;5032475;28;20260;-62
2022/07/12 01:21:19;;;;;;;2.13;1.80;;;15.00;99.90;;;;;;5032437;28;20216;-63
2022/07/12 01:23:48;;;;;;;2.70;1.70;;;15.00;99.90;;;;;;5032296;28;20194;-63
2022/07/12 01:26:15;;;;;;;2.30;1.80;;;14.90;99.90;;;;;;5031934;28;20248;-61
2022/07/12 01:28:42;;;;;;;4.67;1.80;;;14.90;99.90;;;;;;5031411;28;20230;-62
2022/07/12 01:31:09;;;;;;;2.10;1.90;;;14.80;99.90;;;;;;5032246;28;20633;-64
2022/07/12 01:33:36;;;;;;;4.80;2.10;;;14.80;99.90;;;;;;5032030;28;20297;-63
2022/07/12 01:36:04;;;;;;;5.60;1.90;;;14.80;99.90;;;;;;5029272;28;20268;-62
2022/07/12 01:38:32;;;;;;;2.40;2.00;;;14.80;99.90;;;;;;5032130;28;20203;-62
2022/07/12 01:41:00;;;;;;;2.30;2.10;;;14.80;99.90;;;;;;5032115;28;20269;-62
2022/07/12 01:43:28;;;;;;;2.60;2.00;;;14.80;99.90;;;;;;5032394;28;20634;-63
2022/07/12 01:45:55;;;;;;;4.17;1.80;;;14.80;99.90;;;;;;5031742;28;20219;-62
2022/07/12 01:48:22;;;;;;;2.03;1.83;;;14.70;99.90;;;;;;5031880;28;20213;-62
2022/07/12 01:50:49;;;;;;;2.37;1.80;;;14.70;99.90;;;;;;5031347;28;20236;-64
2022/07/12 01:53:17;;;;;;;2.00;1.80;;;14.70;99.90;;;;;;5032318;28;20210;-63
2022/07/12 01:55:44;;;;;;;2.80;1.90;;;14.70;99.90;;;;;;5031889;28;20260;-61
2022/07/12 01:58:13;;;;;;;2.73;1.80;;;14.70;99.90;;;;;;5031777;28;20679;-62
2022/07/12 02:00:41;;;;;;;5.67;1.90;;;14.60;99.90;;;;;;5032019;28;20297;-62
2022/07/12 02:03:08;;;;;;;2.07;1.87;;;14.60;99.90;;;;;;5031829;28;20236;-63
2022/07/12 02:05:36;;;;;;;3.60;1.80;;;14.60;99.90;;;;;;5039001;28;20286;-61
2022/07/12 02:08:03;;;;;;;2.93;1.80;;;14.60;99.90;;;;;;5051347;28;20622;-63
2022/07/12 02:10:30;;;;;;;4.07;1.80;;;14.60;99.90;;;;;;5031929;28;20257;-63
2022/07/12 02:12:57;;;;;;;2.30;1.80;;;14.60;99.90;;;;;;5031514;28;20248;-62
2022/07/12 02:15:25;;;;;;;3.10;2.10;;;14.60;99.90;;;;;;5031944;28;20542;-63
2022/07/12 02:17:52;;;;;;;4.70;1.70;;;14.60;99.90;;;;;;5031636;28;20637;-63
2022/07/12 02:20:19;;;;;;;2.00;1.80;;;14.60;99.90;;;;;;5038181;28;20301;-62
2022/07/12 02:22:46;;;;;;;2.23;1.80;;;14.60;99.90;;;;;;5037433;28;20204;-65
2022/07/12 02:25:13;;;;;;;4.63;1.70;;;14.50;99.90;;;;;;5031450;28;20257;-62
2022/07/12 02:27:41;;;;;;;1.70;1.60;;;14.50;99.90;;;;;;5031451;28;20225;-63
2022/07/12 02:30:09;;;;;;;4.90;1.70;;;14.50;99.90;;;;;;5031242;28;20300;-62
2022/07/12 02:32:37;;;;;;;3.73;1.93;;;14.50;99.90;;;;;;5031846;28;20315;-61
2022/07/12 02:35:04;;;;;;;2.03;1.83;;;14.50;99.90;;;;;;5031163;28;20320;-62
2022/07/12 02:37:31;;;;;;;4.10;1.87;;;14.50;99.90;;;;;;5033809;28;20212;-62
2022/07/12 02:42:39;;;;;;;2.40;1.90;;;14.50;99.90;;;;;;5031154;28;20284;-62
2022/07/12 02:45:07;;;;;;;1.87;1.70;;;14.50;99.90;;;;;;5031364;28;20221;-63
2022/07/12 02:47:38;;;;;;;2.00;1.80;;;14.60;99.90;;;;;;5031489;28;20224;-62
2022/07/12 02:50:06;;;;;;;3.10;1.90;;;14.60;99.90;;;;;;5031355;28;20679;-63
2022/07/12 02:52:33;;;;;;;2.83;1.83;;;14.60;99.90;;;;;;5031473;28;20217;-61
2022/07/12 02:55:00;;;;;;;3.00;2.10;;;14.60;99.90;;;;;;5031056;28;20301;-62
2022/07/12 02:57:27;;;;;;;4.43;1.70;;;14.70;99.90;;;;;;5031211;28;20209;-63
2022/07/12 02:59:54;;;;;;;2.00;1.80;;;14.60;99.90;;;;;;5031470;28;20293;-64
2022/07/12 03:02:21;;;;;;;3.73;1.70;;;14.60;99.90;;;;;;5035196;28;20214;-63
2022/07/12 03:04:49;;;;;;;2.53;1.83;;;14.60;99.90;;;;;;5035121;28;20309;-62
2022/07/12 03:07:16;;;;;;;2.37;1.80;;;14.60;99.90;;;;;;5051199;28;20211;-63
2022/07/12 03:09:43;;;;;;;2.47;1.90;;;14.70;99.90;;;;;;5054718;28;20201;-63
2022/07/12 03:12:10;;;;;;;3.77;1.90;;;14.70;99.90;;;;;;5054775;28;20240;-63
2022/07/12 03:14:36;;;;;;;3.47;1.80;;;14.70;99.90;;;;;;5054895;28;20205;-62
2022/07/12 03:17:04;;;;;;;1.60;1.50;;;14.70;99.90;;;;;;5035315;28;20260;-63
2022/07/12 03:19:31;;;;;;;3.07;2.00;;;14.70;99.90;;;;;;5034915;28;20202;-63
2022/07/12 03:22:00;;;;;;;2.83;1.87;;;14.80;99.90;;;;;;5037181;28;20627;-61
2022/07/12 03:24:27;;;;;;;3.53;2.00;;;14.80;99.90;;;;;;5054844;28;20213;-63
2022/07/12 03:26:54;;;;;;;2.50;2.00;;;14.90;99.90;;;;;;5054386;28;20267;-61
2022/07/12 03:29:21;;;;;;;2.40;1.70;;;15.00;99.90;;;;;;5054570;28;20228;-62
2022/07/12 03:31:48;;;;;;;2.77;2.00;;;15.10;99.90;;;;;;5054248;28;20292;-63
2022/07/12 03:34:15;;;;;;;3.57;2.00;;;15.10;99.90;;;;;;5054413;28;20240;-62
2022/07/12 03:36:42;;;;;;;3.40;1.90;;;15.10;99.90;;;;;;5051126;28;20281;-63
2022/07/12 03:39:10;;;;;;;4.30;1.80;;;15.00;99.90;;;;;;5034553;28;20302;-64
2022/07/12 03:41:37;;;;;;;4.07;2.47;;;15.00;99.90;;;;;;5034106;28;20202;-61
2022/07/12 03:44:05;;;;;;;3.53;2.70;;;15.00;99.90;;;;;;5034543;28;20728;-64
2022/07/12 03:46:33;;;;;;;2.57;1.87;;;15.10;99.90;;;;;;5034699;28;20222;-63
2022/07/12 03:49:00;;;;;;;6.10;1.90;;;15.10;99.90;;;;;;5034749;28;20699;-63
2022/07/12 03:51:27;;;;;;;4.20;1.90;;;15.10;99.90;;;;;;5033801;28;20744;-63
2022/07/12 03:53:54;;;;;;;5.03;2.00;;;15.20;99.90;;;;;;5034151;28;20246;-63
2022/07/12 03:59:03;;;;;;;6.60;1.90;;;15.20;99.90;;;;;;5033903;28;20206;-63
2022/07/12 04:01:30;;;;;;;4.10;1.93;;;15.10;99.90;;;;;;5034269;28;20720;-62
2022/07/12 04:03:58;;;;;;;2.03;1.80;;;15.20;99.90;;;;;;5033898;28;20298;-62
2022/07/12 04:06:25;;;;;;;2.50;1.90;;;15.20;99.90;;;;;;5034267;28;20320;-63
2022/07/12 04:08:52;;;;;;;2.90;1.90;;;15.20;99.90;;;;;;5033167;28;20716;-63
2022/07/12 04:11:19;;;;;;;3.97;1.80;;;15.30;99.90;;;;;;5033948;28;20684;-63
2022/07/12 04:13:47;;;;;;;3.83;1.90;;;15.30;99.90;;;;;;5033686;28;20554;-62
2022/07/12 04:16:14;;;;;;;1.93;1.70;;;15.30;99.90;;;;;;5033625;28;20203;-63
2022/07/12 04:18:41;;;;;;;2.47;2.00;;;15.30;99.90;;;;;;5033400;28;20297;-63
2022/07/12 04:21:08;;;;;;;3.40;1.90;;;15.30;99.90;;;;;;5033783;28;20206;-63
2022/07/12 04:23:35;;;;;;;6.37;2.20;;;15.40;99.90;;;;;;5034721;28;20715;-63
2022/07/12 04:26:01;;;;;;;2.43;1.80;;;15.40;99.90;;;;;;5035883;28;20224;-63
2022/07/12 04:28:28;;;;;;;3.70;2.20;;;15.50;99.90;;;;;;5033399;28;20320;-66
2022/07/12 04:30:57;;;;;;;3.27;2.10;;;15.50;99.90;;;;;;5033504;28;20253;-62
2022/07/12 04:33:24;;;;;;;4.57;2.00;;;15.60;99.90;;;;;;5033747;28;20210;-64
2022/07/12 04:35:50;;;;;;;2.20;1.90;;;15.60;99.90;;;;;;5033086;28;20647;-64
2022/07/12 04:38:17;;;;;;;4.87;2.27;;;15.60;99.90;;;;;;5033706;28;20660;-63
2022/07/12 04:40:44;;;;;;;2.80;1.73;;;15.70;99.90;;;;;;5044717;28;20292;-62
2022/07/12 04:43:11;;;;;;;2.60;1.83;;;15.70;99.90;;;;;;5053217;28;20259;-64
2022/07/12 04:45:38;;;;;;;3.13;2.00;;;15.80;99.90;;;;;;5052944;28;20776;-62
2022/07/12 04:48:07;;;;;;;7.83;3.07;;;15.80;99.90;;;;;;5053400;28;20294;-63
2022/07/12 04:50:34;;;;;;;2.10;1.80;;;15.80;99.90;;;;;;5053102;28;20744;-64
2022/07/12 04:53:00;;;;;;;2.97;1.93;;;15.90;99.90;;;;;;5053315;28;20623;-64
2022/07/12 04:55:27;;;;;;;4.47;1.90;;;15.90;99.90;;;;;;5046784;28;20209;-65
2022/07/12 04:57:54;;;;;;;2.50;1.97;;;16.00;99.90;;;;;;5033040;28;20220;-63
2022/07/12 05:00:21;;;;;;;2.37;1.87;;;16.00;99.90;;;;;;5033504;28;20304;-66
2022/07/12 05:02:48;;;;;;;5.17;2.10;;;16.10;99.90;;;;;;5032573;28;20657;-62
2022/07/12 05:05:17;;;;;;;3.13;2.20;;;16.10;99.90;;;;;;5032588;28;20273;-65
2022/07/12 05:07:43;;;;;;;4.10;2.10;;;16.20;99.90;;;;;;5032758;28;20253;-63
2022/07/12 05:10:10;;;;;;;3.93;2.20;;;16.30;99.90;;;;;;5032984;28;20299;-63
2022/07/12 05:12:37;;;;;;;2.10;1.80;;;16.30;99.90;;;;;;5044287;28;20310;-63
2022/07/12 05:15:05;;;;;;;2.17;1.80;;;16.40;99.90;;;;;;5052458;28;20291;-64
2022/07/12 05:17:32;;;;;;;3.03;1.80;;;16.50;99.90;;;;;;5052081;28;20297;-63
2022/07/12 05:19:59;;;;;;;2.13;1.90;;;16.60;99.90;;;;;;5052292;28;20217;-63
2022/07/12 05:22:27;;;;;;;3.23;2.00;;;16.60;99.90;;;;;;5052291;28;20301;-64
2022/07/12 05:24:54;;;;;;;3.47;1.70;;;16.70;99.90;;;;;;5052179;28;20248;-63
2022/07/12 05:27:21;;;;;;;3.13;2.13;;;16.70;99.90;;;;;;5040406;28;20593;-64
2022/07/12 05:29:48;;;;;;;3.70;1.70;;;16.90;99.90;;;;;;5032558;28;20210;-63
2022/07/12 05:32:15;;;;;;;2.83;1.93;;;17.00;99.90;;;;;;5032350;28;20267;-64
2022/07/12 05:34:42;;;;;;;2.70;1.93;;;17.10;99.90;;;;;;5032139;28;20321;-64
2022/07/12 05:37:09;;;;;;;3.60;1.70;;;17.20;99.90;;;;;;5047048;28;20293;-63
2022/07/12 05:39:37;;;;;;;2.50;1.80;;;17.30;99.90;;;;;;5051940;28;20773;-63
2022/07/12 05:42:05;;;;;;;2.63;2.30;;;17.40;99.90;;;;;;5052241;28;20202;-63
2022/07/12 05:44:32;;;;;;;3.03;2.53;;;17.50;99.90;;;;;;5047507;28;20296;-65
2022/07/12 05:46:58;;;;;;;1.87;1.50;;;17.60;99.90;;;;;;5052439;28;20251;-63
2022/07/12 05:49:25;;;;;;;2.53;1.80;;;17.60;99.90;;;;;;5051994;28;20300;-66
2022/07/12 05:54:38;;;;;;;8.83;1.90;;;17.70;99.90;;;;;;5051724;28;20542;-62
2022/07/12 05:57:05;;;;;;;5.93;1.70;;;17.80;99.90;;;;;;5049503;28;20240;-64
2022/07/12 05:59:32;;;;;;;2.07;1.90;;;17.90;99.90;;;;;;5043464;28;20208;-64
2022/07/12 06:01:59;;;;;;;3.47;1.73;;;18.00;99.90;;;;;;5045156;28;20306;-63
2022/07/12 06:04:26;;;;;;;3.03;1.80;;;18.10;99.90;;;;;;5038521;28;20228;-63
2022/07/12 06:06:53;;;;;;;2.00;1.67;;;18.10;99.90;;;;;;5051774;28;20646;-63
2022/07/12 06:09:20;;;;;;;5.20;1.60;;;18.20;99.90;;;;;;5036151;28;20210;-64
2022/07/12 06:11:48;;;;;;;3.70;2.47;;;18.30;99.90;;;;;;5031784;28;20660;-64
2022/07/12 06:14:15;;;;;;;2.20;1.70;;;18.30;99.90;;;;;;5031546;28;20226;-63
2022/07/12 06:16:42;;;;;;;2.30;1.83;;;18.40;99.90;;;;;;5031865;28;20202;-64
2022/07/12 06:19:09;;;;;;;4.20;1.70;;;18.40;99.90;;;;;;5031205;28;20300;-65
2022/07/12 06:21:36;;;;;;;2.67;1.60;;;18.40;99.90;;;;;;5051610;28;20354;-63
2022/07/12 06:24:03;;;;;;;1.87;1.77;;;18.40;99.90;;;;;;5051764;28;20296;-63
2022/07/12 06:26:30;;;;;;;2.73;1.73;;;18.50;99.90;;;;;;5044942;28;20237;-63
2022/07/12 06:28:58;;;;;;;3.53;1.60;;;18.60;99.90;;;;;;5045927;28;20206;-64
2022/07/12 06:31:25;;;;;;;2.20;1.90;;;18.60;99.90;;;;;;5039549;28;20634;-63
2022/07/12 06:33:52;;;;;;;3.77;1.90;;;18.60;99.90;;;;;;5031704;28;20206;-63
2022/07/12 06:36:19;;;;;;;2.97;1.97;;;18.60;99.90;;;;;;5034131;28;20244;-64
2022/07/12 06:38:46;;;;;;;3.17;1.80;;;18.60;99.90;;;;;;5035671;28;20214;-64
2022/07/12 06:41:13;;;;;;;1.70;1.57;;;18.70;99.90;;;;;;5035672;28;20671;-63
2022/07/12 06:43:40;;;;;;;3.53;1.53;;;18.70;99.90;;;;;;5035594;28;20267;-63
2022/07/12 06:46:08;;;;;;;1.50;1.40;;;18.80;99.90;;;;;;5034470;28;20274;-63
2022/07/12 06:48:35;;;;;;;3.43;1.90;;;18.90;99.90;;;;;;5035486;28;20205;-64
2022/07/12 06:51:02;;;;;;;3.30;2.07;;;18.90;99.90;;;;;;5038071;28;20236;-64
2022/07/12 06:53:29;;;;;;;1.90;1.50;;;19.00;99.90;;;;;;5054892;28;20255;-62
2022/07/12 06:55:57;;;;;;;2.33;1.50;;;19.00;99.90;;;;;;5055336;28;20679;-62
2022/07/12 06:58:24;;;;;;;2.43;1.60;;;19.10;99.90;;;;;;5054833;28;20206;-63
2022/07/12 07:00:50;;;;;;;3.63;2.00;;;19.10;99.90;;;;;;5049964;28;20201;-65
2022/07/12 07:03:19;;;;;;;2.27;1.43;;;19.20;99.90;;;;;;5035108;28;20296;-62
2022/07/12 07:05:46;;;;;;;1.80;1.40;;;19.20;99.90;;;;;;5034886;28;20309;-63
2022/07/12 07:08:12;;;;;;;3.97;1.70;;;19.30;99.90;;;;;;5034543;28;20305;-63
2022/07/12 07:10:39;;;;;;;2.87;1.67;;;19.30;99.90;;;;;;5034748;28;20301;-64
2022/07/12 07:13:10;;;;;;;2.23;1.57;;;19.30;99.90;;;;;;5038040;28;20705;-63
2022/07/12 07:15:39;;;;;;;4.33;1.60;;;19.40;99.90;;;;;;5052284;28;20210;-64
2022/07/12 07:18:06;;;;;;;13.37;3.00;;;19.40;99.90;;;;;;5039979;28;20300;-65
2022/07/12 07:20:35;;;;;;;8.57;2.50;;;19.40;99.90;;;;;;5037256;28;20210;-66
2022/07/12 07:23:01;;;;;;;9.87;3.43;;;19.40;99.90;;;;;;5054897;28;20235;-65
2022/07/12 07:25:28;;;;;;;5.23;1.87;;;19.40;99.90;;;;;;5055027;28;20209;-64
2022/07/12 07:27:55;;;;;;;5.10;2.43;;;19.50;99.90;;;;;;5054673;28;20236;-65
2022/07/12 07:33:07;;;;;;;2.33;1.40;;;19.60;99.90;;;;;;5054698;28;20653;-67
2022/07/12 07:35:35;;;;;;;6.57;1.93;;;19.50;99.90;;;;;;5054663;28;20356;-65
2022/07/12 07:38:02;;;;;;;4.33;1.97;;;19.50;99.90;;;;;;5054799;28;20302;-66
2022/07/12 07:40:29;;;;;;;3.23;1.80;;;19.50;99.90;;;;;;5054508;28;20205;-67
2022/07/12 07:42:56;;;;;;;2.53;1.70;;;19.60;99.90;;;;;;5054800;28;20212;-66
2022/07/12 07:45:22;;;;;;;2.47;1.70;;;19.60;99.90;;;;;;5054400;28;20301;-66
2022/07/12 07:47:50;;;;;;;2.80;1.70;;;19.60;99.90;;;;;;5054058;28;20318;-66
2022/07/12 07:50:17;;;;;;;1.90;1.60;;;19.70;99.90;;;;;;5054252;28;20294;-66
2022/07/12 07:52:48;;;;;;;4.63;1.93;;;19.70;99.90;;;;;;5054473;28;20208;-65
2022/07/12 07:55:15;;;;;;;3.63;2.00;;;19.80;99.90;;;;;;5054047;28;20190;-67
2022/07/12 07:57:42;;;;;;;10.93;2.63;;;19.80;99.90;;;;;;5046614;28;20200;-66
2022/07/12 08:00:11;;;;;;;19.33;4.23;;;19.80;99.90;;;;;;5042160;28;20754;-66
2022/07/12 08:02:38;;;;;;;35.13;5.77;;;19.80;99.90;;;;;;5053334;28;20563;-66
2022/07/12 08:05:05;;;;;;;19.17;3.50;;;19.90;99.90;;;;;;5054142;28;20668;-65
2022/07/12 08:07:32;;;;;;;1.83;1.50;;;20.00;99.90;;;;;;5050418;28;20260;-65
2022/07/12 08:10:00;;;;;;;8.50;2.20;;;20.10;99.90;;;;;;5038834;28;20427;-66
2022/07/12 08:12:27;;;;;;;26.60;3.00;;;20.10;99.90;;;;;;5048792;28;20248;-67
2022/07/12 08:14:54;;;;;;;3.83;1.60;;;20.20;99.90;;;;;;5053342;28;20205;-64
2022/07/12 08:17:21;;;;;;;3.47;1.50;;;20.20;99.90;;;;;;5053525;28;20288;-65
2022/07/12 08:19:48;;;;;;;3.27;1.80;;;20.10;99.90;;;;;;5053774;28;20662;-65
2022/07/12 08:22:15;;;;;;;3.43;1.93;;;20.10;99.90;;;;;;5042124;28;20209;-65
2022/07/12 08:24:42;;;;;;;3.93;1.93;;;20.20;99.90;;;;;;5043016;28;20587;-66
2022/07/12 08:27:10;;;;;;;1.93;1.33;;;20.30;99.90;;;;;;5040386;28;20809;-66
2022/07/12 08:29:37;;;;;;;2.60;1.30;;;20.20;99.90;;;;;;5043962;28;20226;-64
2022/07/12 08:32:05;;;;;;;9.40;2.60;;;20.20;99.90;;;;;;5048368;28;20193;-66
2022/07/12 08:34:32;;;;;;;15.50;2.93;;;20.20;99.90;;;;;;5053194;28;20711;-66
2022/07/12 08:36:59;;;;;;;3.10;1.80;;;20.30;99.90;;;;;;5053444;28;20602;-66
2022/07/12 08:39:26;;;;;;;2.90;1.60;;;20.30;99.90;;;;;;5052984;28;20297;-66
2022/07/12 08:41:52;;;;;;;1.50;1.40;;;20.30;99.90;;;;;;5045226;28;20657;-68
2022/07/12 08:44:21;;;;;;;5.97;1.50;;;20.30;99.90;;;;;;5033741;28;20302;-66
2022/07/12 08:46:48;;;;;;;2.10;1.27;;;20.30;99.90;;;;;;5051650;28;20734;-66
2022/07/12 08:49:15;;;;;;;1.30;1.20;;;20.40;99.90;;;;;;5045098;28;20305;-68
2022/07/12 08:51:42;;;;;;;3.97;1.40;;;20.40;99.90;;;;;;5037032;28;20575;-68
2022/07/12 08:54:10;;;;;;;1.40;1.30;;;20.40;99.90;;;;;;5052193;28;20208;-67
2022/07/12 08:56:39;;;;;;;2.47;1.50;;;20.40;99.90;;;;;;5047823;28;20246;-65
2022/07/12 08:59:16;;;;;;;2.30;1.90;;;20.40;99.90;;;;;;5041955;28;20571;-66
2022/07/12 09:01:47;;;;;;;2.47;1.80;;;20.30;99.90;;;;;;5060073;28;20288;-66
2022/07/12 09:04:15;;;;;;;3.57;1.43;;;20.30;99.90;;;;;;5068097;28;20199;-66
2022/07/12 09:06:42;;;;;;;3.73;1.43;;;20.20;99.90;;;;;;5052935;28;20651;-67
2022/07/12 09:09:09;;;;;;;1.83;1.60;;;20.20;99.90;;;;;;5053337;28;20305;-67
2022/07/12 09:11:38;;;;;;;3.50;1.87;;;20.10;99.90;;;;;;5057334;28;20557;-65
2022/07/12 09:14:05;;;;;;;4.07;2.00;;;20.20;99.90;;;;;;5053462;28;20231;-68
2022/07/12 09:16:32;;;;;;;3.13;1.37;;;20.20;99.90;;;;;;5041370;28;20204;-64
2022/07/12 09:19:24;;;;;;;3.43;1.70;;;20.30;99.90;;;;;;5047926;28;20292;-66
2022/07/12 09:21:52;;;;;;;3.90;1.70;;;20.30;99.90;;;;;;5036685;28;20294;-65
2022/07/12 09:24:20;;;;;;;2.83;1.67;;;20.40;99.90;;;;;;5052977;28;20282;-67
2022/07/12 09:26:47;;;;;;;3.47;1.63;;;20.40;99.90;;;;;;5052784;28;20258;-65
2022/07/12 09:29:16;;;;;;;1.97;1.33;;;20.40;99.90;;;;;;5050157;28;20288;-66
2022/07/12 09:37:16;;;;;;;2.50;1.73;;;20.60;99.90;;;;;;5038782;28;20665;-65
2022/07/12 09:39:43;;;;;;;3.17;1.73;;;20.70;99.90;;;;;;5039339;28;20209;-68
2022/07/12 09:42:12;;;;;;;1.80;1.20;;;20.90;99.90;;;;;;5032442;28;20293;-67
2022/07/12 09:44:39;;;;;;;1.63;1.20;;;21.00;99.90;;;;;;5049763;28;20580;-65
2022/07/12 09:47:12;;;;;;;1.40;1.30;;;21.10;99.90;;;;;;5047171;28;20660;-66
2022/07/12 09:49:41;;;;;;;2.17;1.50;;;21.20;99.90;;;;;;5038839;28;20205;-67
2022/07/12 09:52:12;;;;;;;1.93;1.27;;;21.30;99.90;;;;;;5052388;28;20205;-66
2022/07/12 09:54:41;;;;;;;1.73;1.50;;;21.40;99.90;;;;;;5052569;28;20306;-67
2022/07/12 09:57:14;;;;;;;3.47;1.37;;;21.40;99.90;;;;;;5032166;28;20293;-72
2022/07/12 09:59:41;;;;;;;2.93;1.27;;;21.50;99.90;;;;;;5038237;28;20277;-68
2022/07/12 10:02:09;;;;;;;1.37;1.27;;;21.50;99.90;;;;;;5040691;28;20296;-65
2022/07/12 10:04:37;;;;;;;1.50;1.17;;;21.40;99.90;;;;;;5052021;28;20281;-68
2022/07/12 10:07:05;;;;;;;3.77;1.30;;;21.30;99.90;;;;;;5041929;28;20623;-66
2022/07/12 10:09:33;;;;;;;3.37;1.50;;;21.40;99.90;;;;;;5031635;28;20312;-65
2022/07/12 10:12:00;;;;;;;1.80;1.30;;;21.40;99.90;;;;;;5031677;28;20297;-69
2022/07/12 10:14:28;;;;;;;2.00;1.20;;;21.40;99.90;;;;;;5037048;28;20212;-65
2022/07/12 10:16:57;;;;;;;1.20;1.10;;;21.50;99.90;;;;;;5045096;28;20560;-66
2022/07/12 10:19:29;;;;;;;1.30;1.20;;;21.50;99.90;;;;;;5042208;28;20300;-66
2022/07/12 10:21:58;;;;;;;3.20;1.30;;;21.60;99.90;;;;;;5030526;28;20564;-65
2022/07/12 10:24:52;;;;;;;2.20;1.37;;;21.70;99.90;;;;;;5047555;28;20213;-64
2022/07/12 10:27:33;;;;;;;1.77;1.23;;;21.70;99.90;;;;;;5034918;28;20220;-66
2022/07/12 10:30:24;;;;;;;1.23;1.13;;;21.70;99.90;;;;;;5038888;28;20194;-67
2022/07/12 10:32:53;;;;;;;2.37;1.17;;;21.60;99.90;;;;;;5031967;28;20285;-65
2022/07/12 10:35:22;;;;;;;1.67;1.20;;;21.60;99.90;;;;;;5031510;28;20601;-65
2022/07/12 10:38:15;;;;;;;2.80;1.50;;;21.70;99.90;;;;;;5031842;28;20748;-65
2022/07/12 10:40:45;;;;;;;1.50;1.40;;;21.70;99.90;;;;;;5031470;28;20206;-66
2022/07/12 10:43:21;;;;;;;3.57;1.50;;;21.70;99.90;;;;;;5028294;28;20264;-67
2022/07/12 10:45:48;;;;;;;1.67;1.30;;;21.60;99.90;;;;;;5030626;28;20291;-62
2022/07/12 10:48:25;;;;;;;2.87;1.30;;;21.50;99.90;;;;;;5031749;28;20597;-63
2022/07/12 10:50:57;;;;;;;1.43;1.20;;;21.50;99.90;;;;;;5048171;28;20197;-61
2022/07/12 10:53:33;;;;;;;2.53;1.30;;;21.50;99.90;;;;;;5050861;28;20221;-64
2022/07/12 10:56:22;;;;;;;1.77;1.10;;;21.60;99.90;;;;;;5031441;28;20194;-63
2022/07/12 10:58:52;;;;;;;1.40;1.30;;;21.60;99.90;;;;;;5035307;28;20561;-64
2022/07/12 11:01:21;;;;;;;5.47;1.93;;;21.60;99.90;;;;;;5067636;28;20199;-65
2022/07/12 11:03:52;;;;;;;4.07;2.00;;;21.70;99.90;;;;;;5051315;28;20618;-65
2022/07/12 11:06:20;;;;;;;2.73;1.53;;;21.70;99.90;;;;;;5051490;28;20778;-64
2022/07/12 11:08:55;;;;;;;2.97;1.60;;;21.80;99.90;;;;;;5039045;28;20230;-65
2022/07/12 11:11:26;;;;;;;2.43;2.00;;;21.80;99.90;;;;;;5032312;28;20247;-64
2022/07/12 11:13:54;;;;;;;2.00;1.20;;;21.80;99.90;;;;;;5039281;28;20216;-62
2022/07/12 11:16:21;;;;;;;2.10;1.20;;;21.90;99.90;;;;;;5031570;28;20210;-63
2022/07/12 11:18:49;;;;;;;1.27;1.00;;;22.00;99.90;;;;;;5031431;28;20198;-66
2022/07/12 11:21:15;;;;;;;2.17;1.30;;;22.00;99.90;;;;;;5032094;28;20206;-63
2022/07/12 11:23:43;;;;;;;1.70;1.10;;;22.10;99.90;;;;;;5035126;28;20621;-63
2022/07/12 11:26:12;;;;;;;2.20;1.33;;;22.10;99.90;;;;;;5044362;28;20207;-64
2022/07/12 11:28:42;;;;;;;2.30;1.20;;;22.10;99.90;;;;;;5054746;28;20632;-65
2022/07/12 11:31:11;;;;;;;2.50;1.30;;;22.10;99.90;;;;;;5052837;28;20651;-65
2022/07/12 11:33:40;;;;;;;2.03;1.30;;;22.00;99.90;;;;;;5037884;28;20207;-63
2022/07/12 11:36:08;;;;;;;2.07;1.40;;;21.90;99.90;;;;;;5047042;28;20688;-67
2022/07/12 11:38:36;;;;;;;2.17;1.47;;;21.70;99.90;;;;;;5038106;28;20255;-70
2022/07/12 11:41:04;;;;;;;3.43;1.50;;;21.50;99.90;;;;;;5060605;28;20288;-70
2022/07/12 11:43:32;;;;;;;1.67;1.40;;;21.40;99.90;;;;;;5054904;28;20236;-69
2022/07/12 11:46:01;;;;;;;3.47;1.30;;;21.10;99.90;;;;;;5036465;28;20291;-69
2022/07/12 11:48:32;;;;;;;5.30;1.20;;;20.80;99.90;;;;;;5039373;28;20638;-69
2022/07/12 11:51:03;;;;;;;1.50;1.20;;;20.50;99.90;;;;;;5054767;28;20194;-68
2022/07/12 11:53:30;;;;;;;2.87;1.53;;;20.30;99.90;;;;;;5054663;28;20207;-69
2022/07/12 11:55:59;;;;;;;2.33;1.47;;;19.90;99.90;;;;;;5054139;28;20300;-70
2022/07/12 11:58:27;;;;;;;2.73;1.80;;;19.30;99.90;;;;;;5034438;28;20568;-68
2022/07/12 12:00:56;;;;;;;2.30;1.77;;;19.00;99.90;;;;;;5050002;28;20629;-70
2022/07/12 12:03:25;;;;;;;6.77;2.20;;;18.90;99.90;;;;;;5054335;28;20597;-69
2022/07/12 12:05:54;;;;;;;6.10;2.17;;;18.90;99.90;;;;;;5048508;28;20310;-66
2022/07/12 12:08:21;;;;;;;3.93;1.70;;;18.50;99.90;;;;;;5043325;28;20225;-65
2022/07/12 12:10:57;;;;;;;4.13;1.80;;;18.10;99.90;;;;;;5051361;28;20606;-66
2022/07/12 12:13:26;;;;;;;5.20;2.10;;;17.80;99.90;;;;;;5046249;28;20222;-72
2022/07/12 12:15:57;;;;;;;3.50;2.13;;;17.60;99.90;;;;;;5041169;28;20204;-70
2022/07/12 12:18:34;;;;;;;4.43;2.10;;;17.40;99.90;;;;;;5034992;28;20196;-69
2022/07/12 12:21:03;;;;;;;2.70;1.80;;;17.30;99.90;;;;;;5054639;28;20235;-66
2022/07/12 12:23:30;;;;;;;5.70;2.00;;;17.10;99.90;;;;;;5044351;28;20204;-66
2022/07/12 12:26:11;;;;;;;4.57;1.70;;;16.90;99.90;;;;;;5053521;28;20290;-66
2022/07/12 12:28:49;;;;;;;3.57;2.30;;;16.90;99.90;;;;;;5053664;28;20277;-69
2022/07/12 12:31:17;;;;;;;4.57;2.00;;;16.80;99.90;;;;;;5053578;28;20236;-70
2022/07/12 12:33:48;;;;;;;5.53;1.50;;;16.80;99.90;;;;;;5053830;28;20205;-72
2022/07/12 12:36:16;;;;;;;3.23;2.50;;;16.80;99.90;;;;;;5053576;28;20328;-66
2022/07/12 12:38:44;;;;;;;4.10;2.10;;;16.80;99.90;;;;;;5054018;28;20203;-69
2022/07/12 12:41:12;;;;;;;1.87;1.67;;;16.60;99.90;;;;;;5034555;28;20573;-71
2022/07/12 12:43:39;;;;;;;2.87;1.60;;;16.40;99.90;;;;;;5047021;28;20205;-69
2022/07/12 12:46:07;;;;;;;2.37;1.80;;;16.30;99.90;;;;;;5048094;28;20294;-66
2022/07/12 12:48:35;;;;;;;5.20;1.80;;;16.30;99.90;;;;;;5036819;28;20226;-67
2022/07/12 12:51:08;;;;;;;2.70;1.80;;;16.40;99.90;;;;;;5037304;28;20709;-68
2022/07/12 12:53:37;;;;;;;2.63;1.80;;;16.40;99.90;;;;;;5053822;28;20294;-71
2022/07/12 12:56:07;;;;;;;2.07;1.87;;;16.50;99.90;;;;;;5053709;28;20233;-72
2022/07/12 12:58:34;;;;;;;2.40;1.90;;;16.50;99.90;;;;;;5053914;28;20239;-73
2022/07/12 13:01:01;;;;;;;4.70;2.00;;;16.50;99.90;;;;;;5054568;28;20237;-72
2022/07/12 13:03:28;;;;;;;2.03;1.80;;;16.60;99.90;;;;;;5054566;28;20215;-72
2022/07/12 13:05:55;;;;;;;3.53;1.80;;;16.60;99.90;;;;;;5054122;28;20232;-74